JBR weather

Jonesboro Municipal Airport
Jonesboro, Arkansas, United States

Public forecast

Using degrees Fahrenheit for public forecast. Weather courtesy of forecast.io.

Current aviation weather report (METAR) for Jonesboro Municipal Airport

Retrieved 2019/10/15 08:53 UTC (56 minutes ago):

KJBR 150853Z AUTO 00000KT 10SM CLR 12/10 A3000 RMK AO2 SLP157 T01170100 58013

Aviation forecast (TAF) for Jonesboro Municipal Airport

Retrieved 2019/10/15 06:22 UTC (3 hours ago):

TAF KJBR 150520Z 1506/1606 VRB03KT P6SM BKN250 FM151500 20008KT P6SM BKN025 BKN035 FM160200 30004KT P6SM -SHRA SCT007 OVC015 FM160500 33009KT P6SM OVC020